Route Details

Aircraft Information
Group: European Fleet
Types: A30F, A31F, B738
Route Data
Distance: 145nm
Duration: 0h 35m
Origin METAR: EDDK 010620Z AUTO 28010KT 9999 SCT025 05/02 Q1020 NOSIG
Dest. METAR: EDDW 010620Z AUTO 28018KT 9000 -RA FEW006 BKN023 05/03 Q1010 RERA TEMPO 27020G30KT SHRA BKN012CB
Freight Data
(for Feb 1, 2023)
Load Factor:
100%
Manifested Cargo: 87,248lbs
Financial History
Total Freight: 994,819lbs
Average Load: 0lbs/flt
Fuel Used: 131,776lbs
Avg. Fuel Used: 0lbs/flt
Fuel Expense: $56,500
Avg. Fuel Expense: $0
Avg. Fuel Cost: $0/lbs
Total Gross Income: $2,185,590
Pilot Pay: $4,331
Total Expenses: $353,753
Total Revenue: $1,770,423
Average Revenue: $0

Capitol Logistics 585




EDDK
Cologne Bonn Airport
Cologne, DE
EDDW
Bremen Airport
Bremen, DE